createdAt,value
2023-02-24T00:00:28.259Z,90.42
2023-02-24T00:01:32.507Z,90.48
2023-02-24T00:02:36.796Z,90.38
2023-02-24T00:03:40.979Z,90.33
2023-02-24T00:04:45.073Z,90.53
2023-02-24T00:05:49.268Z,90.72
2023-02-24T00:06:53.492Z,90.84
2023-02-24T00:07:57.649Z,90.89
2023-02-24T00:09:01.892Z,90.81
2023-02-24T00:10:06.057Z,90.62
2023-02-24T00:11:10.266Z,90.42
2023-02-24T00:12:14.417Z,90.19
2023-02-24T00:13:24.550Z,90.13
2023-02-24T00:14:27.340Z,89.92
2023-02-24T00:15:31.388Z,89.78
2023-02-24T00:16:35.775Z,89.57
2023-02-24T00:17:39.681Z,89.60
2023-02-24T00:18:44.011Z,89.63
2023-02-24T00:19:48.114Z,89.77
2023-02-24T00:20:52.438Z,89.88
2023-02-24T00:21:56.585Z,89.86
2023-02-24T00:23:00.778Z,89.86
2023-02-24T00:24:05.001Z,89.76
2023-02-24T00:25:09.179Z,89.89
2023-02-24T00:26:13.370Z,90.09
2023-02-24T00:27:17.432Z,90.02
2023-02-24T00:28:21.702Z,89.70
2023-02-24T00:29:25.963Z,89.71
2023-02-24T00:30:30.174Z,89.74
2023-02-24T00:31:34.501Z,89.88
2023-02-24T00:32:38.631Z,89.78
2023-02-24T00:33:42.794Z,89.73
2023-02-24T00:34:47.099Z,89.69
2023-02-24T00:35:51.227Z,89.64
2023-02-24T00:36:55.573Z,89.50
2023-02-24T00:37:59.711Z,89.44
2023-02-24T00:39:03.970Z,89.52
2023-02-24T00:40:08.110Z,89.38
2023-02-24T00:41:12.297Z,89.17
2023-02-24T00:42:16.469Z,89.15
2023-02-24T00:43:20.782Z,89.28
2023-02-24T00:44:24.923Z,89.42
2023-02-24T00:45:29.069Z,89.39
2023-02-24T00:46:33.333Z,89.27
2023-02-24T00:47:37.428Z,89.05
2023-02-24T00:48:41.711Z,88.89
2023-02-24T00:49:45.962Z,88.81
2023-02-24T00:50:50.304Z,88.58
2023-02-24T00:51:54.371Z,88.37
2023-02-24T00:52:58.664Z,88.19
2023-02-24T00:54:02.920Z,88.13
2023-02-24T00:55:07.043Z,87.99
2023-02-24T00:56:11.238Z,87.99
2023-02-24T00:57:15.438Z,88.05
2023-02-24T00:58:19.677Z,88.03
2023-02-24T00:59:24.050Z,88.13
2023-02-24T01:00:28.132Z,88.23
2023-02-24T01:01:32.396Z,88.21
2023-02-24T01:02:36.440Z,88.30
2023-02-24T01:03:40.696Z,88.31
2023-02-24T01:04:44.821Z,88.29
2023-02-24T01:05:49.042Z,88.42
2023-02-24T01:06:53.251Z,88.59
2023-02-24T01:07:57.390Z,88.67
2023-02-24T01:09:01.695Z,88.68
2023-02-24T01:10:05.881Z,88.65
2023-02-24T01:11:10.048Z,88.67
2023-02-24T01:12:14.384Z,88.81
2023-02-24T01:13:18.513Z,88.83
2023-02-24T01:14:22.674Z,88.93
2023-02-24T01:15:26.858Z,89.02
2023-02-24T01:16:31.064Z,89.08
2023-02-24T01:17:35.272Z,89.09
2023-02-24T01:18:39.497Z,89.09
2023-02-24T01:19:43.676Z,89.01
2023-02-24T01:20:47.878Z,88.81
2023-02-24T01:21:52.091Z,88.75
2023-02-24T01:22:56.353Z,88.73
2023-02-24T01:24:00.470Z,88.64
2023-02-24T01:25:04.610Z,88.65
2023-02-24T01:26:08.841Z,88.51
2023-02-24T01:27:13.038Z,88.39
2023-02-24T01:28:17.222Z,88.38
2023-02-24T01:29:21.538Z,88.19
2023-02-24T01:30:25.630Z,87.95
2023-02-24T01:31:29.942Z,87.94
2023-02-24T01:32:34.303Z,87.91
2023-02-24T01:33:38.216Z,87.76
2023-02-24T01:34:42.504Z,87.73
2023-02-24T01:35:52.551Z,87.91
2023-02-24T01:36:55.327Z,87.75
2023-02-24T01:37:59.618Z,87.79
2023-02-24T01:39:03.735Z,87.74
2023-02-24T01:40:08.003Z,87.75
2023-02-24T01:41:12.119Z,87.60
2023-02-24T01:42:16.319Z,87.69
2023-02-24T01:43:20.524Z,87.66
2023-02-24T01:44:24.695Z,87.62
2023-02-24T01:45:29.090Z,87.63
2023-02-24T01:46:33.153Z,87.74
2023-02-24T01:47:40.220Z,87.79
2023-02-24T01:48:43.504Z,87.95
2023-02-24T01:49:47.694Z,88.01
2023-02-24T01:50:51.851Z,87.99
2023-02-24T01:51:55.998Z,88.05
2023-02-24T01:53:00.099Z,88.06
2023-02-24T01:54:04.378Z,87.78
2023-02-24T01:55:08.469Z,87.72
2023-02-24T01:56:12.650Z,87.55
2023-02-24T01:57:16.883Z,87.50
2023-02-24T01:58:21.069Z,87.47
2023-02-24T01:59:25.245Z,87.37
2023-02-24T02:00:29.458Z,87.41
2023-02-24T02:01:33.658Z,87.48
2023-02-24T02:02:37.928Z,87.45
2023-02-24T02:03:42.152Z,87.53
2023-02-24T02:04:46.349Z,87.70
2023-02-24T02:05:50.554Z,87.83
2023-02-24T02:06:54.778Z,87.86
2023-02-24T02:07:58.954Z,87.71
2023-02-24T02:09:03.192Z,87.66
2023-02-24T02:10:07.489Z,87.64
2023-02-24T02:11:11.683Z,87.61
2023-02-24T02:12:15.792Z,87.41
2023-02-24T02:13:20.022Z,87.42
2023-02-24T02:14:24.163Z,87.53
2023-02-24T02:15:28.396Z,87.58
2023-02-24T02:16:32.613Z,87.71
2023-02-24T02:17:36.788Z,87.79
2023-02-24T02:18:40.976Z,87.82
2023-02-24T02:19:45.172Z,87.90
2023-02-24T02:20:49.388Z,87.80
2023-02-24T02:21:53.570Z,87.97
2023-02-24T02:22:57.796Z,88.06
2023-02-24T02:24:02.008Z,87.98
2023-02-24T02:25:06.208Z,87.70
2023-02-24T02:26:10.451Z,87.40
2023-02-24T02:27:14.740Z,87.33
2023-02-24T02:28:18.846Z,87.36
2023-02-24T02:29:23.105Z,87.48
2023-02-24T02:30:27.352Z,87.47
2023-02-24T02:31:31.604Z,87.36
2023-02-24T02:32:35.831Z,87.28
2023-02-24T02:33:39.844Z,86.88
2023-02-24T02:34:44.046Z,86.80
2023-02-24T02:35:48.128Z,86.43
2023-02-24T02:36:52.359Z,86.19
2023-02-24T02:37:56.569Z,86.11
2023-02-24T02:39:00.752Z,86.06
2023-02-24T02:40:19.015Z,86.22
2023-02-24T02:41:22.448Z,86.29
2023-02-24T02:42:26.291Z,86.23
2023-02-24T02:43:30.552Z,86.25
2023-02-24T02:44:34.679Z,86.31
2023-02-24T02:45:38.913Z,86.24
2023-02-24T02:46:43.131Z,86.41
2023-02-24T02:47:47.321Z,86.65
2023-02-24T02:48:51.577Z,86.82
2023-02-24T02:49:55.792Z,87.02
2023-02-24T02:50:59.966Z,87.11
2023-02-24T02:52:04.255Z,87.29
2023-02-24T02:53:08.437Z,87.41
2023-02-24T02:54:15.636Z,87.28
2023-02-24T02:55:18.926Z,87.37
2023-02-24T02:56:23.079Z,87.39
2023-02-24T02:57:27.328Z,87.33
2023-02-24T02:58:31.470Z,87.44
2023-02-24T02:59:35.788Z,87.58
2023-02-24T03:00:40.051Z,87.58
2023-02-24T03:01:44.204Z,87.58
2023-02-24T03:02:48.461Z,87.65
2023-02-24T03:03:52.627Z,87.74
2023-02-24T03:04:56.907Z,87.89
2023-02-24T03:06:01.950Z,87.75
2023-02-24T03:07:05.831Z,87.59
2023-02-24T03:08:09.875Z,87.52
2023-02-24T03:09:14.116Z,87.58
2023-02-24T03:10:18.274Z,87.64
2023-02-24T03:11:22.706Z,87.67
2023-02-24T03:12:26.740Z,87.67
2023-02-24T03:13:30.960Z,87.69
2023-02-24T03:14:35.063Z,87.75
2023-02-24T03:15:39.321Z,87.79
2023-02-24T03:16:43.612Z,87.85
2023-02-24T03:17:47.870Z,87.81
2023-02-24T03:18:52.025Z,87.44
2023-02-24T03:19:56.231Z,87.33
2023-02-24T03:21:00.437Z,87.02
2023-02-24T03:22:04.664Z,86.88
2023-02-24T03:23:08.862Z,86.95
2023-02-24T03:24:13.080Z,87.04
2023-02-24T03:25:17.260Z,87.15
2023-02-24T03:26:21.440Z,87.24
2023-02-24T03:27:25.628Z,87.22
2023-02-24T03:28:29.817Z,87.04
2023-02-24T03:29:34.044Z,86.70
2023-02-24T03:30:38.295Z,86.69
2023-02-24T03:31:42.474Z,86.75
2023-02-24T03:32:46.693Z,86.78
2023-02-24T03:33:50.743Z,86.72
2023-02-24T03:34:54.945Z,86.70
2023-02-24T03:35:59.234Z,86.69
2023-02-24T03:37:03.312Z,86.75
2023-02-24T03:38:07.595Z,86.69
2023-02-24T03:39:11.773Z,86.72
2023-02-24T03:40:15.982Z,86.81
2023-02-24T03:41:20.489Z,86.94
2023-02-24T03:42:24.469Z,87.03
2023-02-24T03:43:28.713Z,87.14
2023-02-24T03:44:32.879Z,87.00
2023-02-24T03:45:37.129Z,87.07
2023-02-24T03:46:41.216Z,87.05
2023-02-24T03:47:45.522Z,87.11
2023-02-24T03:48:49.759Z,87.16
2023-02-24T03:49:53.964Z,87.21
2023-02-24T03:50:58.120Z,87.15
2023-02-24T03:52:02.246Z,87.27
2023-02-24T03:53:06.532Z,87.39
2023-02-24T03:54:10.688Z,87.29
2023-02-24T03:55:14.976Z,87.30
2023-02-24T03:56:19.137Z,87.43
2023-02-24T03:57:23.456Z,87.48
2023-02-24T03:58:27.580Z,87.55
2023-02-24T03:59:31.811Z,87.66
2023-02-24T04:00:39.090Z,87.66
2023-02-24T04:01:42.319Z,87.67
2023-02-24T04:02:46.453Z,87.76
2023-02-24T04:03:50.697Z,87.87
2023-02-24T04:04:54.818Z,87.79
2023-02-24T04:05:59.029Z,87.83
2023-02-24T04:07:03.218Z,87.88
2023-02-24T04:08:07.502Z,87.93
2023-02-24T04:09:11.678Z,87.94
2023-02-24T04:10:15.762Z,87.97
2023-02-24T04:11:20.404Z,87.99
2023-02-24T04:12:24.224Z,88.05
2023-02-24T04:13:29.285Z,88.07
2023-02-24T04:14:33.090Z,88.13
2023-02-24T04:15:37.373Z,88.17
2023-02-24T04:16:41.510Z,88.18
2023-02-24T04:17:45.732Z,88.15
2023-02-24T04:18:49.899Z,88.16
2023-02-24T04:19:53.998Z,88.05
2023-02-24T04:20:58.372Z,88.10
2023-02-24T04:22:02.544Z,88.04
2023-02-24T04:23:06.756Z,88.00
2023-02-24T04:24:10.977Z,88.01
2023-02-24T04:25:15.203Z,88.01
2023-02-24T04:26:19.349Z,88.04
2023-02-24T04:27:23.552Z,88.05
2023-02-24T04:28:27.786Z,88.06
2023-02-24T04:29:32.062Z,88.07
2023-02-24T04:30:36.238Z,88.08
2023-02-24T04:31:40.667Z,88.10
2023-02-24T04:32:44.595Z,88.02
2023-02-24T04:33:48.890Z,88.00
2023-02-24T04:34:52.933Z,88.03
2023-02-24T04:35:57.185Z,87.98
2023-02-24T04:37:01.394Z,88.04
2023-02-24T04:38:05.705Z,88.00
2023-02-24T04:39:09.740Z,88.02
2023-02-24T04:40:14.008Z,88.08
2023-02-24T04:41:18.680Z,88.12
2023-02-24T04:42:22.399Z,88.08
2023-02-24T04:43:26.525Z,88.11
2023-02-24T04:44:30.662Z,88.06
2023-02-24T04:45:34.773Z,88.06
2023-02-24T04:46:39.001Z,88.07
2023-02-24T04:47:43.140Z,88.13
2023-02-24T04:48:47.391Z,88.17
2023-02-24T04:49:51.577Z,88.16
2023-02-24T04:50:55.716Z,88.16
2023-02-24T04:51:59.833Z,88.34
2023-02-24T04:53:04.099Z,88.39
2023-02-24T04:54:08.168Z,88.45
2023-02-24T04:55:12.447Z,88.53
2023-02-24T04:56:16.768Z,88.60
2023-02-24T04:57:20.924Z,88.66
2023-02-24T04:58:25.089Z,88.72
2023-02-24T04:59:29.175Z,88.74
2023-02-24T05:00:33.513Z,88.69
2023-02-24T05:01:37.654Z,88.64
2023-02-24T05:02:41.844Z,88.67
2023-02-24T05:03:46.103Z,88.69
2023-02-24T05:04:56.428Z,88.72
2023-02-24T05:05:58.998Z,88.67
2023-02-24T05:07:06.296Z,88.68
2023-02-24T05:08:09.420Z,88.67
2023-02-24T05:09:13.708Z,88.64
2023-02-24T05:10:17.981Z,88.64
2023-02-24T05:11:22.426Z,88.55
2023-02-24T05:12:26.310Z,88.58
2023-02-24T05:13:30.482Z,88.59
2023-02-24T05:14:34.726Z,88.63
2023-02-24T05:15:38.995Z,88.61
2023-02-24T05:16:43.193Z,88.67
2023-02-24T05:17:47.368Z,88.72
2023-02-24T05:18:51.538Z,88.77
2023-02-24T05:19:55.735Z,88.78
2023-02-24T05:21:01.793Z,88.79
2023-02-24T05:22:04.102Z,88.81
2023-02-24T05:23:08.328Z,88.86
2023-02-24T05:24:12.507Z,88.87
2023-02-24T05:25:16.782Z,88.89
2023-02-24T05:26:20.807Z,88.87
2023-02-24T05:27:25.138Z,88.89
2023-02-24T05:28:29.259Z,88.91
2023-02-24T05:29:33.424Z,88.90
2023-02-24T05:30:37.707Z,88.93
2023-02-24T05:31:41.967Z,88.94
2023-02-24T05:32:46.047Z,88.98
2023-02-24T05:33:50.170Z,89.01
2023-02-24T05:34:54.435Z,89.01
2023-02-24T05:35:58.546Z,89.04
2023-02-24T05:37:02.680Z,89.05
2023-02-24T05:38:06.900Z,89.07
2023-02-24T05:39:11.178Z,89.10
2023-02-24T05:40:15.343Z,89.16
2023-02-24T05:41:19.961Z,89.16
2023-02-24T05:42:23.656Z,89.19
2023-02-24T05:43:27.841Z,89.22
2023-02-24T05:44:32.045Z,89.24
2023-02-24T05:45:36.340Z,89.27
2023-02-24T05:46:40.493Z,89.27
2023-02-24T05:47:44.619Z,89.28
2023-02-24T05:48:48.729Z,89.29
2023-02-24T05:49:52.959Z,89.29
2023-02-24T05:50:57.148Z,89.33
2023-02-24T05:52:01.221Z,89.34
2023-02-24T05:53:05.458Z,89.38
2023-02-24T05:54:09.630Z,89.38
2023-02-24T05:55:13.892Z,89.39
2023-02-24T05:56:18.013Z,89.40
2023-02-24T05:57:22.228Z,89.42
2023-02-24T05:58:26.304Z,89.43
2023-02-24T05:59:33.778Z,89.42
2023-02-24T06:00:37.155Z,89.39
2023-02-24T06:01:41.301Z,89.45
2023-02-24T06:02:46.316Z,89.45
2023-02-24T06:03:50.144Z,89.41
2023-02-24T06:04:54.368Z,89.42
2023-02-24T06:05:58.475Z,89.46
2023-02-24T06:07:02.570Z,89.43
2023-02-24T06:08:06.809Z,89.44
2023-02-24T06:09:11.113Z,89.40
2023-02-24T06:10:15.158Z,89.40
2023-02-24T06:11:19.754Z,89.41
2023-02-24T06:12:23.533Z,89.46
2023-02-24T06:13:30.760Z,89.50
2023-02-24T06:14:34.118Z,89.42
2023-02-24T06:15:38.329Z,89.55
2023-02-24T06:16:42.445Z,89.58
2023-02-24T06:17:46.660Z,89.61
2023-02-24T06:18:50.741Z,89.72
2023-02-24T06:19:54.984Z,89.76
2023-02-24T06:20:59.273Z,89.78
2023-02-24T06:22:03.393Z,89.79
2023-02-24T06:23:07.582Z,89.81
2023-02-24T06:24:11.797Z,89.81
2023-02-24T06:25:16.024Z,89.83
2023-02-24T06:26:20.187Z,89.84
2023-02-24T06:27:24.748Z,89.89
2023-02-24T06:28:28.616Z,89.93
2023-02-24T06:29:33.013Z,89.97
2023-02-24T06:30:37.161Z,89.97
2023-02-24T06:31:55.498Z,90.01
2023-02-24T06:32:58.344Z,90.06
2023-02-24T06:34:02.329Z,90.11
2023-02-24T06:35:06.536Z,90.12
2023-02-24T06:36:10.689Z,90.19
2023-02-24T06:37:14.901Z,90.24
2023-02-24T06:38:18.962Z,90.27
2023-02-24T06:39:23.280Z,90.29
2023-02-24T06:40:27.440Z,90.31
2023-02-24T06:41:31.547Z,90.32
2023-02-24T06:42:35.763Z,90.32
2023-02-24T06:43:40.019Z,90.33
2023-02-24T06:44:44.190Z,90.32
2023-02-24T06:45:48.432Z,90.32
2023-02-24T06:46:52.563Z,90.33
2023-02-24T06:47:56.817Z,90.33
2023-02-24T06:49:00.984Z,90.33
2023-02-24T06:50:05.164Z,90.32
2023-02-24T06:51:09.351Z,90.33
2023-02-24T06:52:13.541Z,90.33
2023-02-24T06:53:17.829Z,90.33
2023-02-24T06:54:21.993Z,90.34
2023-02-24T06:55:26.177Z,90.36
2023-02-24T06:56:32.419Z,90.36
2023-02-24T06:57:34.516Z,90.36
2023-02-24T06:58:38.776Z,90.35
2023-02-24T06:59:42.982Z,90.33
2023-02-24T07:00:47.195Z,90.36
2023-02-24T07:01:51.442Z,90.36
2023-02-24T07:02:55.621Z,90.39
2023-02-24T07:03:59.863Z,90.42
2023-02-24T07:05:03.996Z,90.41
2023-02-24T07:06:08.326Z,90.39
2023-02-24T07:07:12.366Z,90.40
2023-02-24T07:08:16.530Z,90.43
2023-02-24T07:09:20.831Z,90.46
2023-02-24T07:10:25.017Z,90.45
2023-02-24T07:11:29.224Z,90.45
2023-02-24T07:12:47.518Z,90.39
2023-02-24T07:13:50.386Z,90.41
2023-02-24T07:14:54.548Z,90.37
2023-02-24T07:15:58.762Z,90.39
2023-02-24T07:17:02.977Z,90.41
2023-02-24T07:18:07.076Z,90.42
2023-02-24T07:19:17.304Z,90.43
2023-02-24T07:20:20.224Z,90.42
2023-02-24T07:21:24.276Z,90.36
2023-02-24T07:22:28.363Z,90.35
2023-02-24T07:23:32.623Z,90.33
2023-02-24T07:24:37.083Z,90.29
2023-02-24T07:25:40.922Z,90.22
2023-02-24T07:26:45.032Z,90.26
2023-02-24T07:27:49.264Z,90.24
2023-02-24T07:28:53.493Z,90.25
2023-02-24T07:29:57.655Z,90.22
2023-02-24T07:31:01.955Z,90.20
2023-02-24T07:32:06.290Z,90.19
2023-02-24T07:33:10.073Z,90.17
2023-02-24T07:34:14.290Z,90.18
2023-02-24T07:35:18.443Z,90.20
2023-02-24T07:36:22.629Z,90.24
2023-02-24T07:37:41.001Z,90.26
2023-02-24T07:38:50.254Z,90.24
2023-02-24T07:39:53.136Z,90.29
2023-02-24T07:40:57.197Z,90.30
2023-02-24T07:42:01.417Z,90.39
2023-02-24T07:43:05.650Z,90.47
2023-02-24T07:44:09.843Z,90.56
2023-02-24T07:45:14.049Z,90.62
2023-02-24T07:46:18.178Z,90.72
2023-02-24T07:47:22.314Z,90.78
2023-02-24T07:48:26.607Z,90.85
2023-02-24T07:49:30.655Z,90.84
2023-02-24T07:50:34.786Z,90.95
2023-02-24T07:51:39.068Z,91.00
2023-02-24T07:52:43.380Z,91.02
2023-02-24T07:53:47.408Z,91.10
2023-02-24T07:54:51.654Z,91.22
2023-02-24T07:55:55.869Z,91.36
2023-02-24T07:57:00.153Z,91.45
2023-02-24T07:58:04.281Z,91.50
2023-02-24T07:59:08.503Z,91.55
2023-02-24T08:00:14.573Z,91.62
2023-02-24T08:01:16.812Z,91.73
2023-02-24T08:02:21.222Z,91.77
2023-02-24T08:03:25.294Z,91.82
2023-02-24T08:04:29.584Z,91.82
2023-02-24T08:05:33.765Z,91.88
2023-02-24T08:06:38.022Z,92.00
2023-02-24T08:07:42.285Z,91.98
2023-02-24T08:08:46.397Z,92.03
2023-02-24T08:09:50.727Z,92.06
2023-02-24T08:10:54.889Z,92.11
2023-02-24T08:11:59.136Z,92.14
2023-02-24T08:13:03.339Z,92.17
2023-02-24T08:14:07.503Z,92.19
2023-02-24T08:15:11.738Z,92.20
2023-02-24T08:16:16.065Z,92.35
2023-02-24T08:17:20.204Z,92.41
2023-02-24T08:18:24.363Z,92.41
2023-02-24T08:19:28.517Z,92.44
2023-02-24T08:20:32.698Z,92.47
2023-02-24T08:21:36.867Z,92.54
2023-02-24T08:22:41.069Z,92.62
2023-02-24T08:23:45.289Z,92.66
2023-02-24T08:24:49.436Z,92.69
2023-02-24T08:25:53.692Z,92.74
2023-02-24T08:26:57.800Z,92.80
2023-02-24T08:28:07.871Z,92.86
2023-02-24T08:29:06.201Z,92.96
2023-02-24T08:30:10.378Z,92.98
2023-02-24T08:31:14.805Z,93.08
2023-02-24T08:32:20.752Z,93.11
2023-02-24T08:33:23.246Z,93.19
2023-02-24T08:34:27.285Z,93.31
2023-02-24T08:35:31.452Z,93.37
2023-02-24T08:36:35.594Z,93.41
2023-02-24T08:37:39.964Z,93.42
2023-02-24T08:38:43.974Z,93.44
2023-02-24T08:39:48.135Z,93.47
2023-02-24T08:40:52.368Z,93.48
2023-02-24T08:41:56.473Z,93.48
2023-02-24T08:43:00.685Z,93.57
2023-02-24T08:44:04.852Z,93.62
2023-02-24T08:45:09.054Z,93.67
2023-02-24T08:46:13.853Z,93.78
2023-02-24T08:47:17.577Z,93.82
2023-02-24T08:48:21.708Z,93.85
2023-02-24T08:49:25.939Z,93.92
2023-02-24T08:50:30.065Z,93.95
2023-02-24T08:51:34.230Z,94.06
2023-02-24T08:52:38.421Z,94.07
2023-02-24T08:53:42.580Z,94.09
2023-02-24T08:54:46.747Z,94.10
2023-02-24T08:55:50.833Z,94.15
2023-02-24T08:56:55.079Z,94.19
2023-02-24T08:57:59.430Z,94.20
2023-02-24T08:59:03.419Z,94.23
2023-02-24T09:00:07.703Z,94.29
2023-02-24T09:01:26.156Z,94.43
2023-02-24T09:02:29.043Z,94.49
2023-02-24T09:03:33.124Z,94.62
2023-02-24T09:04:37.310Z,94.67
2023-02-24T09:05:41.397Z,94.69
2023-02-24T09:06:45.591Z,94.70
2023-02-24T09:07:50.645Z,94.75
2023-02-24T09:08:54.351Z,94.81
2023-02-24T09:09:58.586Z,94.89
2023-02-24T09:11:02.706Z,95.03
2023-02-24T09:12:06.918Z,95.17
2023-02-24T09:13:11.000Z,95.32
2023-02-24T09:14:25.999Z,95.36
2023-02-24T09:15:19.483Z,95.46
2023-02-24T09:16:23.825Z,95.57
2023-02-24T09:17:30.007Z,95.62
2023-02-24T09:18:32.021Z,95.68
2023-02-24T09:19:36.765Z,95.72
2023-02-24T09:20:40.441Z,95.77
2023-02-24T09:21:44.627Z,95.81
2023-02-24T09:22:48.799Z,95.92
2023-02-24T09:23:52.877Z,96.00
2023-02-24T09:24:57.076Z,96.05
2023-02-24T09:26:01.250Z,96.06
2023-02-24T09:27:05.458Z,96.07
2023-02-24T09:28:09.634Z,96.09
2023-02-24T09:29:13.803Z,96.13
2023-02-24T09:30:17.915Z,96.19
2023-02-24T09:31:22.646Z,96.26
2023-02-24T09:32:26.403Z,96.32
2023-02-24T09:33:30.501Z,96.37
2023-02-24T09:34:34.737Z,96.38
2023-02-24T09:35:38.942Z,96.45
2023-02-24T09:36:43.075Z,96.47
2023-02-24T09:37:47.223Z,96.51
2023-02-24T09:38:51.324Z,96.56
2023-02-24T09:39:55.554Z,96.56
2023-02-24T09:41:02.811Z,96.59
2023-02-24T09:42:03.871Z,96.61
2023-02-24T09:43:08.119Z,96.72
2023-02-24T09:44:12.212Z,96.84
2023-02-24T09:45:16.358Z,96.94
2023-02-24T09:46:20.758Z,96.96
2023-02-24T09:47:24.686Z,96.97
2023-02-24T09:48:28.881Z,96.99
2023-02-24T09:49:33.047Z,97.00
2023-02-24T09:51:01.065Z,97.06
2023-02-24T09:51:41.473Z,97.07
2023-02-24T09:52:45.543Z,97.11
2023-02-24T09:53:49.764Z,97.15
2023-02-24T09:54:53.926Z,97.22
2023-02-24T09:55:58.062Z,97.26
2023-02-24T09:57:02.368Z,97.30
2023-02-24T09:58:06.462Z,97.35
2023-02-24T09:59:10.655Z,97.41
2023-02-24T10:00:14.797Z,97.44
2023-02-24T10:01:19.415Z,97.49
2023-02-24T10:02:23.094Z,97.54
2023-02-24T10:03:27.246Z,97.58
2023-02-24T10:04:31.298Z,97.61
2023-02-24T10:05:35.635Z,97.61
2023-02-24T10:06:39.771Z,97.63
2023-02-24T10:07:44.049Z,97.63
2023-02-24T10:08:48.150Z,97.66
2023-02-24T10:09:52.238Z,97.71
2023-02-24T10:10:56.444Z,97.77
2023-02-24T10:12:00.588Z,97.80
2023-02-24T10:13:04.776Z,97.91
2023-02-24T10:14:08.940Z,97.99
2023-02-24T10:15:13.157Z,98.04
2023-02-24T10:16:17.344Z,98.06
2023-02-24T10:17:22.703Z,98.07
2023-02-24T10:18:25.613Z,98.09
2023-02-24T10:19:29.767Z,98.11
2023-02-24T10:20:33.938Z,98.16
2023-02-24T10:21:38.091Z,98.21
2023-02-24T10:22:42.238Z,98.22
2023-02-24T10:23:46.551Z,98.27
2023-02-24T10:24:50.727Z,98.30
2023-02-24T10:25:54.954Z,98.37
2023-02-24T10:27:01.273Z,98.33
2023-02-24T10:28:03.287Z,98.39
2023-02-24T10:29:07.425Z,98.46
2023-02-24T10:30:11.742Z,98.49
2023-02-24T10:31:15.941Z,98.50
2023-02-24T10:32:20.127Z,98.52
2023-02-24T10:33:24.176Z,98.55
2023-02-24T10:34:28.342Z,98.55
2023-02-24T10:35:32.523Z,98.56
2023-02-24T10:36:36.817Z,98.53
2023-02-24T10:37:40.924Z,98.60
2023-02-24T10:38:45.079Z,98.65
2023-02-24T10:39:51.826Z,98.59
2023-02-24T10:40:53.484Z,98.70
2023-02-24T10:41:57.972Z,98.72
2023-02-24T10:43:01.820Z,98.83
2023-02-24T10:44:06.070Z,98.86
2023-02-24T10:45:10.171Z,98.89
2023-02-24T10:46:14.406Z,98.92
2023-02-24T10:47:18.552Z,98.98
2023-02-24T10:48:32.349Z,99.03
2023-02-24T10:49:26.880Z,99.07
2023-02-24T10:50:32.474Z,99.08
2023-02-24T10:51:35.243Z,99.09
2023-02-24T10:52:39.410Z,99.15
2023-02-24T10:53:46.069Z,99.19
2023-02-24T10:54:53.823Z,99.17
2023-02-24T10:55:56.554Z,99.22
2023-02-24T10:57:00.662Z,99.31
2023-02-24T10:58:04.802Z,99.38
2023-02-24T10:59:09.091Z,99.45
2023-02-24T11:00:13.244Z,99.48
2023-02-24T11:01:23.791Z,99.52
2023-02-24T11:02:26.173Z,99.53
2023-02-24T11:03:32.980Z,99.53
2023-02-24T11:04:34.519Z,99.56
2023-02-24T11:05:38.762Z,99.60
2023-02-24T11:06:42.910Z,99.67
2023-02-24T11:07:47.110Z,99.70
2023-02-24T11:08:51.253Z,99.73
2023-02-24T11:09:55.489Z,99.74
2023-02-24T11:10:59.697Z,99.80
2023-02-24T11:12:03.833Z,99.83
2023-02-24T11:13:10.291Z,99.93
2023-02-24T11:14:12.212Z,100.00
2023-02-24T11:15:16.403Z,100.00
2023-02-24T11:16:20.707Z,100.00
2023-02-24T11:17:24.777Z,100.00
2023-02-24T11:18:28.970Z,100.00
2023-02-24T11:19:33.132Z,100.00
2023-02-24T11:20:48.383Z,100.00
2023-02-24T11:21:42.808Z,100.00
2023-02-24T11:22:45.695Z,100.00
2023-02-24T11:23:49.830Z,100.00
2023-02-24T11:24:54.042Z,100.00
2023-02-24T11:25:58.230Z,100.00
2023-02-24T11:27:04.331Z,100.00
2023-02-24T11:28:12.527Z,100.00
2023-02-24T11:29:15.300Z,100.00
2023-02-24T11:30:19.508Z,100.00
2023-02-24T11:31:24.136Z,100.00
2023-02-24T11:32:27.955Z,100.00
2023-02-24T11:33:32.008Z,100.00
2023-02-24T11:34:36.220Z,100.00
2023-02-24T11:35:40.390Z,100.00
2023-02-24T11:36:44.570Z,100.00
2023-02-24T11:37:48.770Z,100.00
2023-02-24T11:38:52.978Z,100.00
2023-02-24T11:39:57.269Z,100.00
2023-02-24T11:41:15.423Z,100.00
2023-02-24T11:42:18.495Z,100.00
2023-02-24T11:43:22.626Z,100.00
2023-02-24T11:44:26.827Z,100.00
2023-02-24T11:45:31.093Z,100.00
2023-02-24T11:46:35.299Z,100.00
2023-02-24T11:47:39.432Z,100.00
2023-02-24T11:48:43.672Z,100.00
2023-02-24T11:49:47.741Z,100.00
2023-02-24T11:50:52.060Z,100.00
2023-02-24T11:51:56.272Z,100.00
2023-02-24T11:53:00.441Z,100.00
2023-02-24T11:54:04.599Z,100.00
2023-02-24T11:55:08.827Z,100.00
2023-02-24T11:56:12.998Z,100.00
2023-02-24T11:57:17.175Z,100.00
2023-02-24T11:58:21.509Z,100.00
2023-02-24T11:59:25.658Z,100.00
2023-02-24T12:00:29.837Z,100.00
2023-02-24T12:01:34.036Z,100.00
2023-02-24T12:02:38.218Z,100.00
2023-02-24T12:03:42.355Z,100.00
2023-02-24T12:04:46.584Z,100.00
2023-02-24T12:05:50.843Z,100.00
2023-02-24T12:06:54.946Z,100.00
2023-02-24T12:07:59.248Z,100.00
2023-02-24T12:09:03.360Z,100.00
2023-02-24T12:10:16.707Z,100.00
2023-02-24T12:11:11.759Z,100.00
2023-02-24T12:12:16.053Z,100.00
2023-02-24T12:13:20.170Z,100.00
2023-02-24T12:14:24.371Z,100.00
2023-02-24T12:15:28.501Z,100.00
2023-02-24T12:16:32.706Z,100.00
2023-02-24T12:17:36.892Z,100.00
2023-02-24T12:18:41.041Z,100.00
2023-02-24T12:19:45.234Z,100.00
2023-02-24T12:20:49.520Z,100.00
2023-02-24T12:21:53.703Z,100.00
2023-02-24T12:22:58.017Z,100.00
2023-02-24T12:24:02.206Z,100.00
2023-02-24T12:25:06.398Z,100.00
2023-02-24T12:26:10.586Z,100.00
2023-02-24T12:27:14.771Z,100.00
2023-02-24T12:28:19.025Z,100.00
2023-02-24T12:29:23.243Z,100.00
2023-02-24T12:30:27.491Z,100.00
2023-02-24T12:31:31.749Z,100.00
2023-02-24T12:32:36.084Z,100.00
2023-02-24T12:33:40.026Z,100.00
2023-02-24T12:34:44.257Z,100.00
2023-02-24T12:35:48.424Z,100.00
2023-02-24T12:36:52.609Z,100.00
2023-02-24T12:37:56.818Z,100.00
2023-02-24T12:39:01.046Z,100.00
2023-02-24T12:40:05.228Z,100.00
2023-02-24T12:41:09.639Z,100.00
2023-02-24T12:42:13.666Z,100.00
2023-02-24T12:43:18.014Z,100.00
2023-02-24T12:44:22.067Z,100.00
2023-02-24T12:45:26.317Z,100.00
2023-02-24T12:46:30.549Z,100.00
2023-02-24T12:47:34.700Z,100.00
2023-02-24T12:48:38.866Z,100.00
2023-02-24T12:49:43.041Z,100.00
2023-02-24T12:51:01.271Z,100.00
2023-02-24T12:52:04.254Z,100.00
2023-02-24T12:53:08.297Z,100.00
2023-02-24T12:54:12.568Z,100.00
2023-02-24T12:55:16.783Z,100.00
2023-02-24T12:56:20.784Z,100.00
2023-02-24T12:57:25.108Z,100.00
2023-02-24T12:58:29.321Z,100.00
2023-02-24T12:59:33.493Z,100.00
2023-02-24T13:00:37.696Z,100.00
2023-02-24T13:01:42.007Z,100.00
2023-02-24T13:02:47.083Z,100.00
2023-02-24T13:03:50.892Z,100.00
2023-02-24T13:04:54.996Z,100.00
2023-02-24T13:05:59.224Z,100.00
2023-02-24T13:07:03.395Z,100.00
2023-02-24T13:08:07.667Z,100.00
2023-02-24T13:09:11.736Z,100.00
2023-02-24T13:10:15.869Z,100.00
2023-02-24T13:11:20.619Z,100.00
2023-02-24T13:12:24.236Z,100.00
2023-02-24T13:13:28.462Z,100.00
2023-02-24T13:14:32.697Z,100.00
2023-02-24T13:15:36.899Z,100.00
2023-02-24T13:16:41.085Z,100.00
2023-02-24T13:17:45.256Z,100.00
2023-02-24T13:18:49.449Z,100.00
2023-02-24T13:19:53.604Z,100.00
2023-02-24T13:20:57.925Z,100.00
2023-02-24T13:22:01.974Z,100.00
2023-02-24T13:23:06.147Z,100.00
2023-02-24T13:24:10.386Z,100.00
2023-02-24T13:25:14.609Z,100.00
2023-02-24T13:26:18.792Z,100.00
2023-02-24T13:27:23.008Z,100.00
2023-02-24T13:28:27.212Z,100.00
2023-02-24T13:29:31.397Z,100.00
2023-02-24T13:30:35.655Z,100.00
2023-02-24T13:31:39.885Z,100.00
2023-02-24T13:32:44.091Z,100.00
2023-02-24T13:33:48.154Z,100.00
2023-02-24T13:34:52.348Z,100.00
2023-02-24T13:35:57.478Z,100.00
2023-02-24T13:37:00.838Z,100.00
2023-02-24T13:38:05.030Z,100.00
2023-02-24T13:39:09.223Z,100.00
2023-02-24T13:40:13.370Z,100.00
2023-02-24T13:41:17.602Z,100.00
2023-02-24T13:42:21.714Z,100.00
2023-02-24T13:43:26.008Z,100.00
2023-02-24T13:44:30.100Z,100.00